sensor_id;sensor_type;location;lat;lon;timestamp;P1;durP1;ratioP1;P2;durP2;ratioP2
2860;SDS011;1438;50.922;6.704;2023-04-09T00:00:02;43.67;;;28.47;;
2860;SDS011;1438;50.922;6.704;2023-04-09T00:02:29;37.45;;;25.50;;
2860;SDS011;1438;50.922;6.704;2023-04-09T00:04:55;41.45;;;30.48;;
2860;SDS011;1438;50.922;6.704;2023-04-09T00:07:21;39.28;;;28.88;;
2860;SDS011;1438;50.922;6.704;2023-04-09T00:09:47;39.63;;;27.10;;
2860;SDS011;1438;50.922;6.704;2023-04-09T00:12:13;39.77;;;28.77;;
2860;SDS011;1438;50.922;6.704;2023-04-09T00:14:39;43.60;;;29.48;;
2860;SDS011;1438;50.922;6.704;2023-04-09T00:17:05;41.60;;;27.42;;
2860;SDS011;1438;50.922;6.704;2023-04-09T00:19:31;38.60;;;26.70;;
2860;SDS011;1438;50.922;6.704;2023-04-09T00:21:57;40.40;;;27.37;;
2860;SDS011;1438;50.922;6.704;2023-04-09T00:24:23;38.13;;;27.00;;
2860;SDS011;1438;50.922;6.704;2023-04-09T00:26:49;39.92;;;28.98;;
2860;SDS011;1438;50.922;6.704;2023-04-09T00:29:17;39.25;;;28.92;;
2860;SDS011;1438;50.922;6.704;2023-04-09T00:31:43;42.55;;;28.15;;
2860;SDS011;1438;50.922;6.704;2023-04-09T00:34:09;37.53;;;26.60;;
2860;SDS011;1438;50.922;6.704;2023-04-09T00:36:35;46.28;;;28.02;;
2860;SDS011;1438;50.922;6.704;2023-04-09T00:39:01;40.70;;;27.17;;
2860;SDS011;1438;50.922;6.704;2023-04-09T00:41:27;43.30;;;28.40;;
2860;SDS011;1438;50.922;6.704;2023-04-09T00:43:54;39.60;;;27.83;;
2860;SDS011;1438;50.922;6.704;2023-04-09T00:46:21;39.25;;;26.10;;
2860;SDS011;1438;50.922;6.704;2023-04-09T00:48:47;39.03;;;26.60;;
2860;SDS011;1438;50.922;6.704;2023-04-09T00:51:13;39.87;;;26.80;;
2860;SDS011;1438;50.922;6.704;2023-04-09T00:53:39;41.08;;;26.98;;
2860;SDS011;1438;50.922;6.704;2023-04-09T00:56:05;37.45;;;26.23;;
2860;SDS011;1438;50.922;6.704;2023-04-09T00:58:31;37.55;;;27.30;;
2860;SDS011;1438;50.922;6.704;2023-04-09T01:00:57;37.25;;;25.77;;
2860;SDS011;1438;50.922;6.704;2023-04-09T01:03:23;37.63;;;26.25;;
2860;SDS011;1438;50.922;6.704;2023-04-09T01:06:00;37.67;;;27.02;;
2860;SDS011;1438;50.922;6.704;2023-04-09T01:08:44;39.15;;;26.60;;
2860;SDS011;1438;50.922;6.704;2023-04-09T01:11:25;39.00;;;25.50;;
2860;SDS011;1438;50.922;6.704;2023-04-09T01:14:11;41.83;;;27.75;;
2860;SDS011;1438;50.922;6.704;2023-04-09T01:16:39;42.15;;;28.15;;
2860;SDS011;1438;50.922;6.704;2023-04-09T01:21:52;39.08;;;28.23;;
2860;SDS011;1438;50.922;6.704;2023-04-09T01:24:39;41.10;;;27.90;;
2860;SDS011;1438;50.922;6.704;2023-04-09T01:27:07;45.33;;;28.83;;
2860;SDS011;1438;50.922;6.704;2023-04-09T01:29:34;42.95;;;29.42;;
2860;SDS011;1438;50.922;6.704;2023-04-09T01:32:01;40.60;;;28.80;;
2860;SDS011;1438;50.922;6.704;2023-04-09T01:34:28;42.58;;;29.02;;
2860;SDS011;1438;50.922;6.704;2023-04-09T01:36:56;39.72;;;27.50;;
2860;SDS011;1438;50.922;6.704;2023-04-09T01:39:22;41.47;;;27.95;;
2860;SDS011;1438;50.922;6.704;2023-04-09T01:41:49;47.30;;;26.80;;
2860;SDS011;1438;50.922;6.704;2023-04-09T01:44:15;37.50;;;27.45;;
2860;SDS011;1438;50.922;6.704;2023-04-09T01:46:42;44.83;;;27.42;;
2860;SDS011;1438;50.922;6.704;2023-04-09T01:49:08;45.10;;;28.77;;
2860;SDS011;1438;50.922;6.704;2023-04-09T01:51:35;39.88;;;27.00;;
2860;SDS011;1438;50.922;6.704;2023-04-09T01:54:01;40.28;;;26.52;;
2860;SDS011;1438;50.922;6.704;2023-04-09T01:56:27;36.95;;;27.60;;
2860;SDS011;1438;50.922;6.704;2023-04-09T01:58:53;38.47;;;27.45;;
2860;SDS011;1438;50.922;6.704;2023-04-09T02:01:21;43.90;;;28.92;;
2860;SDS011;1438;50.922;6.704;2023-04-09T02:03:53;44.30;;;29.35;;
2860;SDS011;1438;50.922;6.704;2023-04-09T02:06:23;45.00;;;29.38;;
2860;SDS011;1438;50.922;6.704;2023-04-09T02:08:51;41.28;;;28.08;;
2860;SDS011;1438;50.922;6.704;2023-04-09T02:11:17;43.25;;;29.05;;
2860;SDS011;1438;50.922;6.704;2023-04-09T02:13:45;39.42;;;27.83;;
2860;SDS011;1438;50.922;6.704;2023-04-09T02:16:12;42.45;;;27.38;;
2860;SDS011;1438;50.922;6.704;2023-04-09T02:18:40;40.80;;;27.33;;
2860;SDS011;1438;50.922;6.704;2023-04-09T02:21:06;42.83;;;27.45;;
2860;SDS011;1438;50.922;6.704;2023-04-09T02:23:32;40.60;;;26.60;;
2860;SDS011;1438;50.922;6.704;2023-04-09T02:25:58;40.72;;;26.73;;
2860;SDS011;1438;50.922;6.704;2023-04-09T02:28:24;37.57;;;26.50;;
2860;SDS011;1438;50.922;6.704;2023-04-09T02:30:50;39.47;;;28.40;;
2860;SDS011;1438;50.922;6.704;2023-04-09T02:33:16;40.55;;;30.05;;
2860;SDS011;1438;50.922;6.704;2023-04-09T02:35:42;39.73;;;27.63;;
2860;SDS011;1438;50.922;6.704;2023-04-09T02:38:08;42.23;;;29.43;;
2860;SDS011;1438;50.922;6.704;2023-04-09T02:40:38;43.20;;;29.38;;
2860;SDS011;1438;50.922;6.704;2023-04-09T02:43:04;45.38;;;30.13;;
2860;SDS011;1438;50.922;6.704;2023-04-09T02:45:30;43.50;;;29.47;;
2860;SDS011;1438;50.922;6.704;2023-04-09T02:47:56;41.50;;;28.77;;
2860;SDS011;1438;50.922;6.704;2023-04-09T02:50:22;40.23;;;27.60;;
2860;SDS011;1438;50.922;6.704;2023-04-09T02:52:47;46.37;;;29.30;;
2860;SDS011;1438;50.922;6.704;2023-04-09T02:55:14;38.87;;;27.40;;
2860;SDS011;1438;50.922;6.704;2023-04-09T02:57:40;42.58;;;29.95;;
2860;SDS011;1438;50.922;6.704;2023-04-09T03:00:06;47.17;;;30.45;;
2860;SDS011;1438;50.922;6.704;2023-04-09T03:02:32;41.25;;;28.88;;
2860;SDS011;1438;50.922;6.704;2023-04-09T03:04:58;44.40;;;28.63;;
2860;SDS011;1438;50.922;6.704;2023-04-09T03:07:24;40.17;;;27.70;;
2860;SDS011;1438;50.922;6.704;2023-04-09T03:09:50;39.70;;;28.83;;
2860;SDS011;1438;50.922;6.704;2023-04-09T03:12:16;40.07;;;27.87;;
2860;SDS011;1438;50.922;6.704;2023-04-09T03:14:42;46.87;;;28.80;;
2860;SDS011;1438;50.922;6.704;2023-04-09T03:17:08;41.07;;;27.80;;
2860;SDS011;1438;50.922;6.704;2023-04-09T03:19:34;48.47;;;29.10;;
2860;SDS011;1438;50.922;6.704;2023-04-09T03:22:00;41.85;;;28.88;;
2860;SDS011;1438;50.922;6.704;2023-04-09T03:24:26;50.78;;;29.45;;
2860;SDS011;1438;50.922;6.704;2023-04-09T03:26:52;40.37;;;28.00;;
2860;SDS011;1438;50.922;6.704;2023-04-09T03:29:17;49.23;;;30.97;;
2860;SDS011;1438;50.922;6.704;2023-04-09T03:31:44;48.83;;;31.90;;
2860;SDS011;1438;50.922;6.704;2023-04-09T03:34:10;42.80;;;27.97;;
2860;SDS011;1438;50.922;6.704;2023-04-09T03:36:35;39.37;;;26.27;;
2860;SDS011;1438;50.922;6.704;2023-04-09T03:39:01;37.40;;;24.70;;
2860;SDS011;1438;50.922;6.704;2023-04-09T03:41:27;36.93;;;25.40;;
2860;SDS011;1438;50.922;6.704;2023-04-09T03:43:53;32.85;;;24.25;;
2860;SDS011;1438;50.922;6.704;2023-04-09T03:46:19;39.70;;;24.40;;
2860;SDS011;1438;50.922;6.704;2023-04-09T03:48:46;34.25;;;24.45;;
2860;SDS011;1438;50.922;6.704;2023-04-09T03:51:12;35.58;;;24.42;;
2860;SDS011;1438;50.922;6.704;2023-04-09T03:53:39;32.28;;;21.80;;
2860;SDS011;1438;50.922;6.704;2023-04-09T03:56:05;34.65;;;23.08;;
2860;SDS011;1438;50.922;6.704;2023-04-09T03:58:32;40.72;;;24.35;;
2860;SDS011;1438;50.922;6.704;2023-04-09T04:00:58;32.92;;;23.95;;
2860;SDS011;1438;50.922;6.704;2023-04-09T04:03:24;37.90;;;23.85;;
2860;SDS011;1438;50.922;6.704;2023-04-09T04:05:50;41.45;;;26.70;;
2860;SDS011;1438;50.922;6.704;2023-04-09T04:08:16;39.25;;;25.20;;
2860;SDS011;1438;50.922;6.704;2023-04-09T04:10:42;34.33;;;24.70;;
2860;SDS011;1438;50.922;6.704;2023-04-09T04:13:08;34.73;;;24.47;;
2860;SDS011;1438;50.922;6.704;2023-04-09T04:15:40;44.27;;;28.60;;
2860;SDS011;1438;50.922;6.704;2023-04-09T04:18:06;42.55;;;28.33;;
2860;SDS011;1438;50.922;6.704;2023-04-09T04:20:32;42.75;;;28.15;;
2860;SDS011;1438;50.922;6.704;2023-04-09T04:22:58;49.72;;;30.98;;
2860;SDS011;1438;50.922;6.704;2023-04-09T04:25:24;49.47;;;29.90;;
2860;SDS011;1438;50.922;6.704;2023-04-09T04:27:50;46.40;;;28.42;;
2860;SDS011;1438;50.922;6.704;2023-04-09T04:30:18;41.20;;;28.23;;
2860;SDS011;1438;50.922;6.704;2023-04-09T04:32:44;40.33;;;28.33;;
2860;SDS011;1438;50.922;6.704;2023-04-09T04:35:10;46.30;;;29.40;;
2860;SDS011;1438;50.922;6.704;2023-04-09T04:37:36;44.37;;;29.40;;
2860;SDS011;1438;50.922;6.704;2023-04-09T04:40:02;40.28;;;25.83;;
2860;SDS011;1438;50.922;6.704;2023-04-09T04:42:29;45.72;;;28.30;;
2860;SDS011;1438;50.922;6.704;2023-04-09T04:44:55;45.80;;;30.77;;
2860;SDS011;1438;50.922;6.704;2023-04-09T04:47:21;48.77;;;31.27;;
2860;SDS011;1438;50.922;6.704;2023-04-09T04:49:47;44.53;;;27.77;;
2860;SDS011;1438;50.922;6.704;2023-04-09T04:52:13;48.20;;;29.30;;
2860;SDS011;1438;50.922;6.704;2023-04-09T04:54:39;43.75;;;27.88;;
2860;SDS011;1438;50.922;6.704;2023-04-09T04:57:05;49.45;;;30.13;;
2860;SDS011;1438;50.922;6.704;2023-04-09T04:59:31;43.70;;;30.13;;
2860;SDS011;1438;50.922;6.704;2023-04-09T05:01:57;44.53;;;29.23;;
2860;SDS011;1438;50.922;6.704;2023-04-09T05:04:23;50.30;;;29.70;;
2860;SDS011;1438;50.922;6.704;2023-04-09T05:06:49;47.60;;;29.73;;
2860;SDS011;1438;50.922;6.704;2023-04-09T05:09:15;39.67;;;28.88;;
2860;SDS011;1438;50.922;6.704;2023-04-09T05:11:41;40.83;;;28.23;;
2860;SDS011;1438;50.922;6.704;2023-04-09T05:14:07;43.50;;;29.20;;
2860;SDS011;1438;50.922;6.704;2023-04-09T05:16:33;47.50;;;30.92;;
2860;SDS011;1438;50.922;6.704;2023-04-09T05:18:59;64.70;;;32.33;;
2860;SDS011;1438;50.922;6.704;2023-04-09T05:21:25;72.57;;;33.33;;
2860;SDS011;1438;50.922;6.704;2023-04-09T05:23:51;85.88;;;34.13;;
2860;SDS011;1438;50.922;6.704;2023-04-09T05:26:18;47.55;;;32.05;;
2860;SDS011;1438;50.922;6.704;2023-04-09T05:28:45;53.83;;;31.60;;
2860;SDS011;1438;50.922;6.704;2023-04-09T05:31:11;57.83;;;32.15;;
2860;SDS011;1438;50.922;6.704;2023-04-09T05:33:39;141.20;;;37.15;;
2860;SDS011;1438;50.922;6.704;2023-04-09T05:36:05;65.50;;;31.73;;
2860;SDS011;1438;50.922;6.704;2023-04-09T05:38:31;54.08;;;31.88;;
2860;SDS011;1438;50.922;6.704;2023-04-09T05:40:58;46.88;;;29.52;;
2860;SDS011;1438;50.922;6.704;2023-04-09T05:43:24;48.55;;;31.30;;
2860;SDS011;1438;50.922;6.704;2023-04-09T05:45:50;70.90;;;32.92;;
2860;SDS011;1438;50.922;6.704;2023-04-09T05:48:16;55.95;;;32.47;;
2860;SDS011;1438;50.922;6.704;2023-04-09T05:50:49;258.90;;;44.17;;
2860;SDS011;1438;50.922;6.704;2023-04-09T05:53:17;69.78;;;31.25;;
2860;SDS011;1438;50.922;6.704;2023-04-09T05:55:43;48.05;;;30.23;;
2860;SDS011;1438;50.922;6.704;2023-04-09T05:58:09;51.10;;;30.38;;
2860;SDS011;1438;50.922;6.704;2023-04-09T06:00:36;44.60;;;29.73;;
2860;SDS011;1438;50.922;6.704;2023-04-09T06:03:02;51.83;;;30.50;;
2860;SDS011;1438;50.922;6.704;2023-04-09T06:05:28;50.40;;;31.33;;
2860;SDS011;1438;50.922;6.704;2023-04-09T06:07:54;40.00;;;28.55;;
2860;SDS011;1438;50.922;6.704;2023-04-09T06:10:20;39.70;;;27.75;;
2860;SDS011;1438;50.922;6.704;2023-04-09T06:12:46;47.70;;;28.33;;
2860;SDS011;1438;50.922;6.704;2023-04-09T06:15:12;50.90;;;30.70;;
2860;SDS011;1438;50.922;6.704;2023-04-09T06:17:38;41.53;;;28.83;;
2860;SDS011;1438;50.922;6.704;2023-04-09T06:20:04;46.22;;;29.17;;
2860;SDS011;1438;50.922;6.704;2023-04-09T06:22:30;44.33;;;28.52;;
2860;SDS011;1438;50.922;6.704;2023-04-09T06:24:56;49.67;;;30.67;;
2860;SDS011;1438;50.922;6.704;2023-04-09T06:27:22;43.30;;;28.10;;
2860;SDS011;1438;50.922;6.704;2023-04-09T06:29:48;44.25;;;31.15;;
2860;SDS011;1438;50.922;6.704;2023-04-09T06:32:15;38.27;;;27.30;;
2860;SDS011;1438;50.922;6.704;2023-04-09T06:34:41;47.30;;;31.25;;
2860;SDS011;1438;50.922;6.704;2023-04-09T06:37:07;48.47;;;30.67;;
2860;SDS011;1438;50.922;6.704;2023-04-09T06:39:33;49.03;;;31.40;;
2860;SDS011;1438;50.922;6.704;2023-04-09T06:41:59;52.40;;;31.52;;
2860;SDS011;1438;50.922;6.704;2023-04-09T06:44:25;48.05;;;32.35;;
2860;SDS011;1438;50.922;6.704;2023-04-09T06:46:51;53.20;;;33.92;;
2860;SDS011;1438;50.922;6.704;2023-04-09T06:49:17;48.13;;;33.25;;
2860;SDS011;1438;50.922;6.704;2023-04-09T06:51:43;46.97;;;31.42;;
2860;SDS011;1438;50.922;6.704;2023-04-09T06:54:09;44.20;;;29.20;;
2860;SDS011;1438;50.922;6.704;2023-04-09T06:56:35;45.80;;;30.73;;
2860;SDS011;1438;50.922;6.704;2023-04-09T06:59:01;47.10;;;31.50;;
2860;SDS011;1438;50.922;6.704;2023-04-09T07:01:27;50.03;;;34.47;;
2860;SDS011;1438;50.922;6.704;2023-04-09T07:03:53;48.30;;;31.80;;
2860;SDS011;1438;50.922;6.704;2023-04-09T07:06:19;52.72;;;34.70;;
2860;SDS011;1438;50.922;6.704;2023-04-09T07:08:45;52.97;;;35.50;;
2860;SDS011;1438;50.922;6.704;2023-04-09T07:11:11;52.33;;;34.63;;
2860;SDS011;1438;50.922;6.704;2023-04-09T07:13:37;57.27;;;34.70;;
2860;SDS011;1438;50.922;6.704;2023-04-09T07:16:03;49.77;;;33.10;;
2860;SDS011;1438;50.922;6.704;2023-04-09T07:18:29;49.88;;;31.02;;
2860;SDS011;1438;50.922;6.704;2023-04-09T07:20:55;50.20;;;32.33;;
2860;SDS011;1438;50.922;6.704;2023-04-09T07:23:21;47.43;;;31.17;;
2860;SDS011;1438;50.922;6.704;2023-04-09T07:25:47;44.13;;;28.35;;
2860;SDS011;1438;50.922;6.704;2023-04-09T07:28:13;45.58;;;28.00;;
2860;SDS011;1438;50.922;6.704;2023-04-09T07:30:39;49.92;;;30.70;;
2860;SDS011;1438;50.922;6.704;2023-04-09T07:33:06;43.42;;;28.63;;
2860;SDS011;1438;50.922;6.704;2023-04-09T07:35:32;40.33;;;24.47;;
2860;SDS011;1438;50.922;6.704;2023-04-09T07:37:58;41.97;;;25.52;;
2860;SDS011;1438;50.922;6.704;2023-04-09T07:40:24;37.60;;;24.75;;
2860;SDS011;1438;50.922;6.704;2023-04-09T07:42:51;39.17;;;23.02;;
2860;SDS011;1438;50.922;6.704;2023-04-09T07:45:18;34.42;;;23.60;;
2860;SDS011;1438;50.922;6.704;2023-04-09T07:47:44;35.38;;;21.52;;
2860;SDS011;1438;50.922;6.704;2023-04-09T07:50:10;31.45;;;21.20;;
2860;SDS011;1438;50.922;6.704;2023-04-09T07:52:36;29.75;;;21.60;;
2860;SDS011;1438;50.922;6.704;2023-04-09T07:55:03;32.30;;;21.55;;
2860;SDS011;1438;50.922;6.704;2023-04-09T07:57:31;31.63;;;20.95;;
2860;SDS011;1438;50.922;6.704;2023-04-09T07:59:57;30.35;;;20.13;;
2860;SDS011;1438;50.922;6.704;2023-04-09T08:02:23;33.07;;;21.03;;
2860;SDS011;1438;50.922;6.704;2023-04-09T08:04:50;29.45;;;19.58;;
2860;SDS011;1438;50.922;6.704;2023-04-09T08:07:16;26.40;;;18.97;;
2860;SDS011;1438;50.922;6.704;2023-04-09T08:09:42;23.60;;;17.00;;
2860;SDS011;1438;50.922;6.704;2023-04-09T08:12:08;19.10;;;14.85;;
2860;SDS011;1438;50.922;6.704;2023-04-09T08:14:35;20.38;;;13.98;;
2860;SDS011;1438;50.922;6.704;2023-04-09T08:18:42;21.38;;;13.30;;
2860;SDS011;1438;50.922;6.704;2023-04-09T08:21:08;15.38;;;11.55;;
2860;SDS011;1438;50.922;6.704;2023-04-09T08:23:34;13.80;;;10.93;;
2860;SDS011;1438;50.922;6.704;2023-04-09T08:26:02;16.80;;;11.88;;
2860;SDS011;1438;50.922;6.704;2023-04-09T08:28:28;13.75;;;10.27;;
2860;SDS011;1438;50.922;6.704;2023-04-09T08:30:55;12.15;;;9.80;;
2860;SDS011;1438;50.922;6.704;2023-04-09T08:33:21;14.83;;;10.13;;
2860;SDS011;1438;50.922;6.704;2023-04-09T08:35:47;9.75;;;7.50;;
2860;SDS011;1438;50.922;6.704;2023-04-09T08:38:13;11.10;;;7.77;;
2860;SDS011;1438;50.922;6.704;2023-04-09T08:40:39;12.73;;;8.93;;
2860;SDS011;1438;50.922;6.704;2023-04-09T08:43:06;8.60;;;7.73;;
2860;SDS011;1438;50.922;6.704;2023-04-09T08:45:32;9.50;;;7.90;;
2860;SDS011;1438;50.922;6.704;2023-04-09T08:47:58;8.70;;;7.10;;
2860;SDS011;1438;50.922;6.704;2023-04-09T08:50:27;9.30;;;7.47;;
2860;SDS011;1438;50.922;6.704;2023-04-09T08:52:53;10.20;;;8.60;;
2860;SDS011;1438;50.922;6.704;2023-04-09T08:55:19;8.93;;;7.67;;
2860;SDS011;1438;50.922;6.704;2023-04-09T08:57:45;8.37;;;6.67;;
2860;SDS011;1438;50.922;6.704;2023-04-09T09:00:11;6.70;;;6.00;;
2860;SDS011;1438;50.922;6.704;2023-04-09T09:02:37;6.97;;;5.43;;
2860;SDS011;1438;50.922;6.704;2023-04-09T09:05:04;7.03;;;6.10;;
2860;SDS011;1438;50.922;6.704;2023-04-09T09:07:30;7.40;;;5.90;;
2860;SDS011;1438;50.922;6.704;2023-04-09T09:09:59;6.50;;;5.80;;
2860;SDS011;1438;50.922;6.704;2023-04-09T09:12:41;6.87;;;5.87;;
2860;SDS011;1438;50.922;6.704;2023-04-09T09:15:24;8.10;;;6.13;;
2860;SDS011;1438;50.922;6.704;2023-04-09T09:17:54;6.73;;;5.50;;
2860;SDS011;1438;50.922;6.704;2023-04-09T09:20:21;7.03;;;5.77;;
2860;SDS011;1438;50.922;6.704;2023-04-09T09:22:47;6.47;;;5.60;;
2860;SDS011;1438;50.922;6.704;2023-04-09T09:25:15;6.60;;;5.87;;
2860;SDS011;1438;50.922;6.704;2023-04-09T09:27:41;8.63;;;7.13;;
2860;SDS011;1438;50.922;6.704;2023-04-09T09:30:07;5.47;;;4.90;;
2860;SDS011;1438;50.922;6.704;2023-04-09T09:32:34;7.20;;;6.07;;
2860;SDS011;1438;50.922;6.704;2023-04-09T09:35:01;8.00;;;5.80;;
2860;SDS011;1438;50.922;6.704;2023-04-09T09:37:28;7.30;;;6.60;;
2860;SDS011;1438;50.922;6.704;2023-04-09T09:39:54;5.93;;;5.23;;
2860;SDS011;1438;50.922;6.704;2023-04-09T09:42:21;8.40;;;7.17;;
2860;SDS011;1438;50.922;6.704;2023-04-09T09:44:47;6.40;;;5.80;;
2860;SDS011;1438;50.922;6.704;2023-04-09T09:47:13;5.80;;;5.13;;
2860;SDS011;1438;50.922;6.704;2023-04-09T09:49:39;8.97;;;5.37;;
2860;SDS011;1438;50.922;6.704;2023-04-09T09:52:07;5.37;;;4.80;;
2860;SDS011;1438;50.922;6.704;2023-04-09T09:54:40;6.40;;;5.70;;
2860;SDS011;1438;50.922;6.704;2023-04-09T09:57:09;6.17;;;5.57;;
2860;SDS011;1438;50.922;6.704;2023-04-09T09:59:40;5.80;;;5.20;;
2860;SDS011;1438;50.922;6.704;2023-04-09T10:02:08;6.40;;;5.77;;
2860;SDS011;1438;50.922;6.704;2023-04-09T10:04:37;6.37;;;5.30;;
2860;SDS011;1438;50.922;6.704;2023-04-09T10:07:03;5.80;;;5.30;;
2860;SDS011;1438;50.922;6.704;2023-04-09T10:09:30;6.07;;;5.47;;
2860;SDS011;1438;50.922;6.704;2023-04-09T10:11:57;6.97;;;5.40;;
2860;SDS011;1438;50.922;6.704;2023-04-09T10:14:24;5.60;;;5.00;;
2860;SDS011;1438;50.922;6.704;2023-04-09T10:16:52;7.03;;;5.40;;
2860;SDS011;1438;50.922;6.704;2023-04-09T10:19:18;5.93;;;5.33;;
2860;SDS011;1438;50.922;6.704;2023-04-09T10:24:12;6.03;;;4.77;;
2860;SDS011;1438;50.922;6.704;2023-04-09T10:26:40;5.27;;;4.77;;
2860;SDS011;1438;50.922;6.704;2023-04-09T10:29:07;6.10;;;5.50;;
2860;SDS011;1438;50.922;6.704;2023-04-09T10:31:44;6.30;;;5.70;;
2860;SDS011;1438;50.922;6.704;2023-04-09T10:34:13;5.63;;;5.03;;
2860;SDS011;1438;50.922;6.704;2023-04-09T10:36:41;7.10;;;6.03;;
2860;SDS011;1438;50.922;6.704;2023-04-09T10:39:13;6.00;;;5.40;;
2860;SDS011;1438;50.922;6.704;2023-04-09T10:41:39;6.10;;;5.47;;
2860;SDS011;1438;50.922;6.704;2023-04-09T10:44:14;5.63;;;5.03;;
2860;SDS011;1438;50.922;6.704;2023-04-09T10:46:44;5.73;;;5.17;;
2860;SDS011;1438;50.922;6.704;2023-04-09T10:49:11;5.33;;;4.80;;
2860;SDS011;1438;50.922;6.704;2023-04-09T10:51:40;6.87;;;5.40;;
2860;SDS011;1438;50.922;6.704;2023-04-09T10:59:39;6.37;;;4.83;;
2860;SDS011;1438;50.922;6.704;2023-04-09T11:02:06;7.40;;;5.43;;
2860;SDS011;1438;50.922;6.704;2023-04-09T11:04:36;5.27;;;4.77;;
2860;SDS011;1438;50.922;6.704;2023-04-09T11:07:04;6.77;;;5.50;;
2860;SDS011;1438;50.922;6.704;2023-04-09T11:09:34;5.87;;;5.27;;
2860;SDS011;1438;50.922;6.704;2023-04-09T11:12:00;6.07;;;5.47;;
2860;SDS011;1438;50.922;6.704;2023-04-09T11:14:27;5.50;;;4.73;;
2860;SDS011;1438;50.922;6.704;2023-04-09T11:16:53;6.73;;;5.60;;
2860;SDS011;1438;50.922;6.704;2023-04-09T11:19:19;6.30;;;5.80;;
2860;SDS011;1438;50.922;6.704;2023-04-09T11:21:46;5.17;;;4.40;;
2860;SDS011;1438;50.922;6.704;2023-04-09T11:24:13;7.00;;;6.10;;
2860;SDS011;1438;50.922;6.704;2023-04-09T11:26:39;5.80;;;5.27;;
2860;SDS011;1438;50.922;6.704;2023-04-09T11:29:08;6.83;;;5.43;;
2860;SDS011;1438;50.922;6.704;2023-04-09T11:31:34;5.83;;;5.17;;
2860;SDS011;1438;50.922;6.704;2023-04-09T11:34:01;6.80;;;6.10;;
2860;SDS011;1438;50.922;6.704;2023-04-09T11:36:27;5.10;;;4.60;;
2860;SDS011;1438;50.922;6.704;2023-04-09T11:38:56;4.53;;;4.13;;
2860;SDS011;1438;50.922;6.704;2023-04-09T11:41:36;5.87;;;4.87;;
2860;SDS011;1438;50.922;6.704;2023-04-09T11:44:02;5.57;;;4.70;;
2860;SDS011;1438;50.922;6.704;2023-04-09T11:46:31;5.53;;;5.00;;
2860;SDS011;1438;50.922;6.704;2023-04-09T11:48:58;5.40;;;4.90;;
2860;SDS011;1438;50.922;6.704;2023-04-09T11:51:25;5.17;;;4.67;;
2860;SDS011;1438;50.922;6.704;2023-04-09T11:53:51;6.20;;;5.20;;
2860;SDS011;1438;50.922;6.704;2023-04-09T11:56:17;7.13;;;6.43;;
2860;SDS011;1438;50.922;6.704;2023-04-09T11:58:46;5.90;;;5.37;;
2860;SDS011;1438;50.922;6.704;2023-04-09T12:01:13;5.77;;;4.93;;
2860;SDS011;1438;50.922;6.704;2023-04-09T12:03:39;5.83;;;5.23;;
2860;SDS011;1438;50.922;6.704;2023-04-09T12:06:06;6.00;;;5.40;;
2860;SDS011;1438;50.922;6.704;2023-04-09T12:08:33;6.13;;;5.53;;
2860;SDS011;1438;50.922;6.704;2023-04-09T12:11:06;6.50;;;5.60;;
2860;SDS011;1438;50.922;6.704;2023-04-09T12:13:33;5.93;;;5.33;;
2860;SDS011;1438;50.922;6.704;2023-04-09T12:15:59;5.23;;;4.73;;
2860;SDS011;1438;50.922;6.704;2023-04-09T12:18:27;5.43;;;4.93;;
2860;SDS011;1438;50.922;6.704;2023-04-09T12:20:53;6.83;;;5.57;;
2860;SDS011;1438;50.922;6.704;2023-04-09T12:23:19;6.10;;;5.50;;
2860;SDS011;1438;50.922;6.704;2023-04-09T12:25:45;6.13;;;5.57;;
2860;SDS011;1438;50.922;6.704;2023-04-09T12:28:12;5.77;;;5.17;;
2860;SDS011;1438;50.922;6.704;2023-04-09T12:30:42;4.80;;;4.40;;
2860;SDS011;1438;50.922;6.704;2023-04-09T12:33:08;5.17;;;4.70;;
2860;SDS011;1438;50.922;6.704;2023-04-09T12:35:34;6.17;;;5.57;;
2860;SDS011;1438;50.922;6.704;2023-04-09T12:38:02;4.80;;;4.40;;
2860;SDS011;1438;50.922;6.704;2023-04-09T12:40:36;6.00;;;5.00;;
2860;SDS011;1438;50.922;6.704;2023-04-09T12:43:02;5.13;;;4.63;;
2860;SDS011;1438;50.922;6.704;2023-04-09T12:45:29;6.23;;;5.03;;
2860;SDS011;1438;50.922;6.704;2023-04-09T12:47:55;5.30;;;4.80;;
2860;SDS011;1438;50.922;6.704;2023-04-09T12:50:22;5.90;;;5.40;;
2860;SDS011;1438;50.922;6.704;2023-04-09T12:52:48;5.40;;;4.80;;
2860;SDS011;1438;50.922;6.704;2023-04-09T12:55:14;5.43;;;4.93;;
2860;SDS011;1438;50.922;6.704;2023-04-09T12:57:42;5.97;;;5.43;;
2860;SDS011;1438;50.922;6.704;2023-04-09T13:00:08;5.37;;;4.87;;
2860;SDS011;1438;50.922;6.704;2023-04-09T13:02:34;5.40;;;4.90;;
2860;SDS011;1438;50.922;6.704;2023-04-09T13:05:01;7.93;;;7.03;;
2860;SDS011;1438;50.922;6.704;2023-04-09T13:07:27;5.83;;;5.23;;
2860;SDS011;1438;50.922;6.704;2023-04-09T13:09:53;5.30;;;4.80;;
2860;SDS011;1438;50.922;6.704;2023-04-09T13:12:19;7.33;;;6.20;;
2860;SDS011;1438;50.922;6.704;2023-04-09T13:14:46;6.83;;;6.13;;
2860;SDS011;1438;50.922;6.704;2023-04-09T13:17:12;8.90;;;7.87;;
2860;SDS011;1438;50.922;6.704;2023-04-09T13:19:38;6.07;;;5.47;;
2860;SDS011;1438;50.922;6.704;2023-04-09T13:22:05;5.70;;;5.20;;
2860;SDS011;1438;50.922;6.704;2023-04-09T13:24:33;6.03;;;5.53;;
2860;SDS011;1438;50.922;6.704;2023-04-09T13:27:00;5.77;;;5.27;;
2860;SDS011;1438;50.922;6.704;2023-04-09T13:29:26;6.57;;;4.77;;
2860;SDS011;1438;50.922;6.704;2023-04-09T13:31:54;5.50;;;5.00;;
2860;SDS011;1438;50.922;6.704;2023-04-09T13:34:21;5.50;;;4.93;;
2860;SDS011;1438;50.922;6.704;2023-04-09T13:36:47;5.70;;;5.20;;
2860;SDS011;1438;50.922;6.704;2023-04-09T13:39:13;6.10;;;5.50;;
2860;SDS011;1438;50.922;6.704;2023-04-09T13:41:39;6.23;;;5.63;;
2860;SDS011;1438;50.922;6.704;2023-04-09T13:44:05;6.43;;;5.43;;
2860;SDS011;1438;50.922;6.704;2023-04-09T13:46:31;5.37;;;4.87;;
2860;SDS011;1438;50.922;6.704;2023-04-09T13:48:57;5.73;;;5.17;;
2860;SDS011;1438;50.922;6.704;2023-04-09T13:51:23;6.00;;;5.43;;
2860;SDS011;1438;50.922;6.704;2023-04-09T13:53:50;5.70;;;5.20;;
2860;SDS011;1438;50.922;6.704;2023-04-09T13:56:16;5.90;;;4.90;;
2860;SDS011;1438;50.922;6.704;2023-04-09T13:58:42;5.40;;;4.90;;
2860;SDS011;1438;50.922;6.704;2023-04-09T14:01:08;5.80;;;5.20;;
2860;SDS011;1438;50.922;6.704;2023-04-09T14:03:35;5.20;;;4.50;;
2860;SDS011;1438;50.922;6.704;2023-04-09T14:06:02;4.80;;;4.40;;
2860;SDS011;1438;50.922;6.704;2023-04-09T14:08:28;4.93;;;4.53;;
2860;SDS011;1438;50.922;6.704;2023-04-09T14:10:55;5.00;;;4.47;;
2860;SDS011;1438;50.922;6.704;2023-04-09T14:13:21;4.77;;;4.37;;
2860;SDS011;1438;50.922;6.704;2023-04-09T14:15:47;4.90;;;4.20;;
2860;SDS011;1438;50.922;6.704;2023-04-09T14:18:14;5.30;;;4.80;;
2860;SDS011;1438;50.922;6.704;2023-04-09T14:20:40;4.20;;;3.87;;
2860;SDS011;1438;50.922;6.704;2023-04-09T14:23:06;5.10;;;4.10;;
2860;SDS011;1438;50.922;6.704;2023-04-09T14:25:32;4.37;;;4.07;;
2860;SDS011;1438;50.922;6.704;2023-04-09T14:27:58;4.47;;;4.03;;
2860;SDS011;1438;50.922;6.704;2023-04-09T14:30:24;4.67;;;3.70;;
2860;SDS011;1438;50.922;6.704;2023-04-09T14:32:50;3.90;;;3.60;;
2860;SDS011;1438;50.922;6.704;2023-04-09T14:35:15;4.80;;;3.97;;
2860;SDS011;1438;50.922;6.704;2023-04-09T14:37:42;4.00;;;3.70;;
2860;SDS011;1438;50.922;6.704;2023-04-09T14:40:08;4.10;;;3.70;;
2860;SDS011;1438;50.922;6.704;2023-04-09T14:42:34;3.80;;;3.50;;
2860;SDS011;1438;50.922;6.704;2023-04-09T14:45:00;3.43;;;3.13;;
2860;SDS011;1438;50.922;6.704;2023-04-09T14:47:26;3.87;;;3.47;;
2860;SDS011;1438;50.922;6.704;2023-04-09T14:49:52;3.80;;;3.40;;
2860;SDS011;1438;50.922;6.704;2023-04-09T14:52:18;3.70;;;3.40;;
2860;SDS011;1438;50.922;6.704;2023-04-09T14:54:44;4.87;;;4.37;;
2860;SDS011;1438;50.922;6.704;2023-04-09T14:57:11;4.83;;;4.03;;
2860;SDS011;1438;50.922;6.704;2023-04-09T14:59:36;3.40;;;3.10;;
2860;SDS011;1438;50.922;6.704;2023-04-09T15:02:02;4.63;;;4.23;;
2860;SDS011;1438;50.922;6.704;2023-04-09T15:04:28;4.43;;;4.03;;
2860;SDS011;1438;50.922;6.704;2023-04-09T15:06:54;5.80;;;4.80;;
2860;SDS011;1438;50.922;6.704;2023-04-09T15:09:20;4.90;;;4.50;;